createdAt,value
2022-10-11T00:00:51.955Z,88.1
2022-10-11T00:01:55.195Z,88.1
2022-10-11T00:02:58.268Z,88.8
2022-10-11T00:04:01.060Z,88.8
2022-10-11T00:05:04.438Z,88.6
2022-10-11T00:06:09.428Z,87.9
2022-10-11T00:07:12.372Z,87.6
2022-10-11T00:08:15.419Z,87.9
2022-10-11T00:09:19.535Z,88.4
2022-10-11T00:10:22.937Z,88.7
2022-10-11T00:11:25.774Z,88.4
2022-10-11T00:12:28.949Z,88.6
2022-10-11T00:13:32.137Z,88.7
2022-10-11T00:14:35.335Z,88.2
2022-10-11T00:15:38.327Z,88.2
2022-10-11T00:16:41.516Z,88
2022-10-11T00:17:44.589Z,87.9
2022-10-11T00:18:47.826Z,87.5
2022-10-11T00:19:50.615Z,87.4
2022-10-11T00:20:53.875Z,87.6
2022-10-11T00:21:56.969Z,87
2022-10-11T00:22:59.553Z,87.2
2022-10-11T00:24:02.138Z,87.7
2022-10-11T00:25:05.242Z,87.7
2022-10-11T00:26:10.563Z,87.4
2022-10-11T00:27:12.835Z,87.1
2022-10-11T00:28:16.822Z,87.7
2022-10-11T00:29:19.811Z,88.3
2022-10-11T00:30:23.037Z,88.3
2022-10-11T00:31:25.510Z,87.9
2022-10-11T00:32:29.134Z,87.5
2022-10-11T00:33:32.446Z,88.5
2022-10-11T00:34:35.333Z,88.2
2022-10-11T00:35:37.902Z,87.8
2022-10-11T00:36:40.779Z,87.6
2022-10-11T00:37:44.223Z,87.4
2022-10-11T00:38:46.895Z,87.3
2022-10-11T00:39:50.072Z,87.9
2022-10-11T00:40:53.736Z,87.9
2022-10-11T00:41:56.662Z,87.7
2022-10-11T00:42:59.737Z,87.8
2022-10-11T00:44:02.881Z,87.2
2022-10-11T00:45:05.964Z,87
2022-10-11T00:46:10.162Z,87.2
2022-10-11T00:47:12.866Z,87.3
2022-10-11T00:48:15.734Z,87.2
2022-10-11T00:49:18.685Z,87.2
2022-10-11T00:50:22.146Z,87.4
2022-10-11T00:51:25.210Z,87.4
2022-10-11T00:52:27.738Z,87.6
2022-10-11T00:53:30.795Z,87.4
2022-10-11T00:54:33.683Z,87.7
2022-10-11T00:55:37.470Z,87.8
2022-10-11T00:56:41.200Z,87.4
2022-10-11T00:57:44.664Z,87.4
2022-10-11T00:58:46.812Z,87.8
2022-10-11T00:59:50.038Z,87.9
2022-10-11T01:00:53.073Z,88.1
2022-10-11T01:01:55.841Z,88.3
2022-10-11T01:02:58.924Z,88.2
2022-10-11T01:04:01.093Z,87.6
2022-10-11T01:05:31.324Z,87.4
2022-10-11T01:06:34.150Z,87.8
2022-10-11T01:07:36.024Z,87.7
2022-10-11T01:08:38.634Z,88.1
2022-10-11T01:09:42.001Z,88.3
2022-10-11T01:10:44.796Z,88.2
2022-10-11T01:11:48.533Z,88.6
2022-10-11T01:12:51.729Z,88.3
2022-10-11T01:13:54.524Z,87.8
2022-10-11T01:14:57.408Z,87.6
2022-10-11T01:16:00.486Z,87.6
2022-10-11T01:17:04.605Z,87.6
2022-10-11T01:18:07.589Z,87.6
2022-10-11T01:19:10.114Z,88.3
2022-10-11T01:20:13.210Z,88
2022-10-11T01:21:15.646Z,88
2022-10-11T01:22:18.506Z,88.6
2022-10-11T01:23:21.949Z,88.1
2022-10-11T01:24:24.550Z,88
2022-10-11T01:25:27.328Z,87.6
2022-10-11T01:26:30.538Z,87.8
2022-10-11T01:27:33.841Z,87.9
2022-10-11T01:28:37.528Z,88
2022-10-11T01:29:39.885Z,88.4
2022-10-11T01:30:43.879Z,88.3
2022-10-11T01:31:46.951Z,88.2
2022-10-11T01:32:49.462Z,88.6
2022-10-11T01:33:52.563Z,88.7
2022-10-11T01:34:55.369Z,88.9
2022-10-11T01:35:58.147Z,88.3
2022-10-11T01:37:00.587Z,88
2022-10-11T01:38:03.945Z,87.8
2022-10-11T01:39:06.524Z,87.9
2022-10-11T01:40:09.122Z,87.6
2022-10-11T01:41:12.387Z,87.6
2022-10-11T01:42:15.519Z,87.5
2022-10-11T01:43:19.275Z,87.6
2022-10-11T01:44:23.124Z,87.9
2022-10-11T01:45:26.844Z,88.2
2022-10-11T01:46:29.795Z,87.9
2022-10-11T01:47:33.148Z,88.4
2022-10-11T01:48:36.269Z,88.8
2022-10-11T01:49:39.800Z,88.3
2022-10-11T01:50:42.596Z,88.1
2022-10-11T01:51:48.944Z,88.1
2022-10-11T01:52:52.367Z,88.1
2022-10-11T01:53:55.260Z,88.8
2022-10-11T01:55:11.516Z,88.2
2022-10-11T01:56:14.673Z,88.4
2022-10-11T01:57:17.829Z,88.4
2022-10-11T01:58:21.001Z,88.2
2022-10-11T01:59:24.229Z,87.9
2022-10-11T02:00:27.944Z,87.9
2022-10-11T02:01:31.105Z,88.2
2022-10-11T02:02:34.214Z,88.4
2022-10-11T02:03:37.375Z,88.1
2022-10-11T02:04:40.416Z,87.9
2022-10-11T02:05:43.566Z,88.3
2022-10-11T02:06:46.549Z,88.7
2022-10-11T02:07:49.271Z,88.5
2022-10-11T02:08:52.734Z,88.4
2022-10-11T02:09:55.522Z,88.1
2022-10-11T02:10:58.982Z,88
2022-10-11T02:12:02.331Z,88.6
2022-10-11T02:13:05.109Z,88.1
2022-10-11T02:14:08.570Z,88.5
2022-10-11T02:15:11.423Z,88.5
2022-10-11T02:16:14.614Z,88.7
2022-10-11T02:17:17.668Z,89.1
2022-10-11T02:18:20.257Z,89.1
2022-10-11T02:19:22.949Z,88.9
2022-10-11T02:20:25.508Z,88.7
2022-10-11T02:21:27.931Z,88.4
2022-10-11T02:22:30.730Z,88.1
2022-10-11T02:23:33.589Z,87.8
2022-10-11T02:24:36.839Z,88
2022-10-11T02:25:39.829Z,88
2022-10-11T02:26:42.750Z,88.3
2022-10-11T02:27:46.108Z,88.7
2022-10-11T02:28:49.592Z,88.5
2022-10-11T02:29:52.946Z,88.5
2022-10-11T02:30:56.518Z,88.6
2022-10-11T02:31:59.966Z,88
2022-10-11T02:33:02.569Z,88
2022-10-11T02:34:05.707Z,88.7
2022-10-11T02:35:08.804Z,88.6
2022-10-11T02:36:12.179Z,88.5
2022-10-11T02:37:15.529Z,88.2
2022-10-11T02:38:18.348Z,88.3
2022-10-11T02:39:21.705Z,88
2022-10-11T02:40:24.154Z,88
2022-10-11T02:41:27.877Z,88.5
2022-10-11T02:42:30.985Z,88.5
2022-10-11T02:43:33.879Z,88.3
2022-10-11T02:44:37.112Z,88.4
2022-10-11T02:45:40.272Z,88.1
2022-10-11T02:46:43.784Z,88.3
2022-10-11T02:47:46.330Z,87.9
2022-10-11T02:48:49.992Z,88.5
2022-10-11T02:49:53.047Z,88.7
2022-10-11T02:50:56.297Z,88.8
2022-10-11T02:51:59.302Z,89.2
2022-10-11T02:53:02.649Z,88.9
2022-10-11T02:54:05.444Z,88.6
2022-10-11T02:55:07.408Z,88.4
2022-10-11T02:56:10.129Z,88.2
2022-10-11T02:57:13.847Z,88.9
2022-10-11T02:58:17.271Z,89.1
2022-10-11T02:59:20.170Z,89.2
2022-10-11T03:00:23.401Z,88.6
2022-10-11T03:01:26.769Z,88.7
2022-10-11T03:02:30.091Z,88.6
2022-10-11T03:03:33.193Z,88.6
2022-10-11T03:04:36.296Z,88.7
2022-10-11T03:05:39.474Z,88.3
2022-10-11T03:06:42.642Z,89.1
2022-10-11T03:07:45.081Z,89.1
2022-10-11T03:08:48.154Z,89.1
2022-10-11T03:09:51.402Z,88.7
2022-10-11T03:10:54.544Z,88.8
2022-10-11T03:11:57.892Z,88.6
2022-10-11T03:13:01.299Z,88.4
2022-10-11T03:14:04.387Z,88.6
2022-10-11T03:15:07.382Z,88.6
2022-10-11T03:16:12.672Z,88.6
2022-10-11T03:17:38.445Z,88.8
2022-10-11T03:18:42.164Z,88.7
2022-10-11T03:19:45.245Z,89.2
2022-10-11T03:20:48.037Z,89
2022-10-11T03:21:50.464Z,88.9
2022-10-11T03:22:53.929Z,88.7
2022-10-11T03:23:56.634Z,88.4
2022-10-11T03:25:05.934Z,88.7
2022-10-11T03:26:10.252Z,89.2
2022-10-11T03:27:13.066Z,88.9
2022-10-11T03:28:16.785Z,88.4
2022-10-11T03:29:19.498Z,88.4
2022-10-11T03:30:21.835Z,88.4
2022-10-11T03:31:25.308Z,88.2
2022-10-11T03:32:28.475Z,88
2022-10-11T03:33:31.256Z,88.6
2022-10-11T03:34:35.090Z,88.8
2022-10-11T03:35:37.631Z,88.6
2022-10-11T03:36:40.703Z,88.4
2022-10-11T03:37:43.366Z,87.9
2022-10-11T03:38:46.785Z,87.5
2022-10-11T03:39:50.307Z,87.4
2022-10-11T03:40:53.662Z,87.8
2022-10-11T03:41:56.445Z,88
2022-10-11T03:43:00.066Z,87.8
2022-10-11T03:44:02.641Z,87.8
2022-10-11T03:45:05.713Z,87.8
2022-10-11T03:46:10.468Z,87.9
2022-10-11T03:47:14.206Z,88
2022-10-11T03:48:17.934Z,87.8
2022-10-11T03:49:21.376Z,88.6
2022-10-11T03:50:25.139Z,88.8
2022-10-11T03:51:27.935Z,88.7
2022-10-11T03:52:31.065Z,88.3
2022-10-11T03:53:33.939Z,88.5
2022-10-11T03:54:36.642Z,88.4
2022-10-11T03:55:40.383Z,88.4
2022-10-11T03:56:42.904Z,88
2022-10-11T03:57:46.312Z,88
2022-10-11T03:58:49.194Z,88.1
2022-10-11T03:59:52.402Z,88.1
2022-10-11T04:00:54.916Z,88.1
2022-10-11T04:01:58.235Z,88.2
2022-10-11T04:03:02.577Z,88.2
2022-10-11T04:04:05.738Z,88.3
2022-10-11T04:05:08.453Z,88.5
2022-10-11T04:06:12.525Z,88.2
2022-10-11T04:07:15.964Z,88.6
2022-10-11T04:08:18.751Z,88.1
2022-10-11T04:09:21.718Z,87.9
2022-10-11T04:10:24.517Z,88
2022-10-11T04:11:27.682Z,88.1
2022-10-11T04:12:30.754Z,88.1
2022-10-11T04:13:33.830Z,88
2022-10-11T04:14:36.973Z,88.5
2022-10-11T04:15:40.059Z,88.7
2022-10-11T04:16:43.602Z,88.3
2022-10-11T04:17:46.941Z,88
2022-10-11T04:18:49.882Z,88
2022-10-11T04:19:52.989Z,87.7
2022-10-11T04:20:56.077Z,87.9
2022-10-11T04:21:59.663Z,88.2
2022-10-11T04:23:02.559Z,88.1
2022-10-11T04:24:05.498Z,88.1
2022-10-11T04:25:08.601Z,88
2022-10-11T04:26:11.757Z,88.1
2022-10-11T04:27:14.665Z,88.5
2022-10-11T04:28:18.057Z,88.4
2022-10-11T04:29:21.413Z,88
2022-10-11T04:30:24.476Z,87.8
2022-10-11T04:31:27.419Z,87.7
2022-10-11T04:32:30.798Z,87.7
2022-10-11T04:33:33.584Z,87.6
2022-10-11T04:34:36.838Z,87.6
2022-10-11T04:35:40.556Z,87.8
2022-10-11T04:36:50.433Z,87.8
2022-10-11T04:37:53.948Z,87.9
2022-10-11T04:38:57.379Z,87.9
2022-10-11T04:40:00.270Z,88.1
2022-10-11T04:41:03.152Z,88.8
2022-10-11T04:42:06.314Z,88.7
2022-10-11T04:43:09.211Z,88.5
2022-10-11T04:44:12.486Z,87.9
2022-10-11T04:45:15.674Z,87.6
2022-10-11T04:46:18.473Z,87.7
2022-10-11T04:47:21.395Z,88
2022-10-11T04:48:24.828Z,88.6
2022-10-11T04:49:28.056Z,88.3
2022-10-11T04:50:31.204Z,88.1
2022-10-11T04:51:35.010Z,88.6
2022-10-11T04:52:38.004Z,88.2
2022-10-11T04:53:41.595Z,87.8
2022-10-11T04:54:44.472Z,87.8
2022-10-11T04:55:47.822Z,87.8
2022-10-11T04:56:50.502Z,87.9
2022-10-11T04:57:53.843Z,88.1
2022-10-11T04:58:56.727Z,88.3
2022-10-11T05:00:00.150Z,88.1
2022-10-11T05:01:02.868Z,88.2
2022-10-11T05:02:06.106Z,88.2
2022-10-11T05:03:09.483Z,87.8
2022-10-11T05:04:12.127Z,88.2
2022-10-11T05:05:15.276Z,88.2
2022-10-11T05:06:18.347Z,88
2022-10-11T05:07:21.798Z,88
2022-10-11T05:08:24.513Z,88
2022-10-11T05:09:27.658Z,88
2022-10-11T05:10:30.933Z,88.6
2022-10-11T05:11:33.725Z,88.5
2022-10-11T05:12:36.976Z,88.4
2022-10-11T05:13:39.764Z,88.2
2022-10-11T05:14:43.223Z,88.3
2022-10-11T05:15:45.377Z,88.5
2022-10-11T05:16:48.182Z,88.1
2022-10-11T05:17:51.249Z,88.1
2022-10-11T05:18:54.217Z,88.2
2022-10-11T05:19:57.384Z,88.1
2022-10-11T05:21:00.609Z,88.1
2022-10-11T05:22:03.819Z,87.8
2022-10-11T05:23:06.715Z,88.2
2022-10-11T05:24:09.044Z,88.2
2022-10-11T05:25:12.554Z,88.4
2022-10-11T05:26:15.422Z,88.4
2022-10-11T05:27:18.805Z,88.2
2022-10-11T05:28:21.598Z,88.2
2022-10-11T05:29:24.518Z,88
2022-10-11T05:30:27.777Z,88
2022-10-11T05:31:30.835Z,87.8
2022-10-11T05:32:34.266Z,87.7
2022-10-11T05:33:37.258Z,87.5
2022-10-11T05:34:40.254Z,87.9
2022-10-11T05:35:43.514Z,87.8
2022-10-11T05:36:47.135Z,88.4
2022-10-11T05:37:49.803Z,88.4
2022-10-11T05:38:52.657Z,87.9
2022-10-11T05:39:56.114Z,87.8
2022-10-11T05:40:59.814Z,87.6
2022-10-11T05:42:10.231Z,87.7
2022-10-11T05:43:14.079Z,88
2022-10-11T05:44:16.679Z,87.9
2022-10-11T05:45:19.555Z,87.7
2022-10-11T05:46:22.974Z,87.6
2022-10-11T05:47:25.705Z,88
2022-10-11T05:48:28.890Z,88.4
2022-10-11T05:49:31.954Z,88.8
2022-10-11T05:50:34.634Z,88.4
2022-10-11T05:51:37.422Z,88
2022-10-11T05:52:40.562Z,87.7
2022-10-11T05:53:44.098Z,88
2022-10-11T05:54:47.507Z,87.9
2022-10-11T05:55:50.108Z,87.7
2022-10-11T05:56:54.224Z,87.5
2022-10-11T05:57:56.745Z,87.8
2022-10-11T05:59:03.732Z,87.4
2022-10-11T06:00:06.816Z,87.2
2022-10-11T06:01:10.715Z,87.4
2022-10-11T06:02:14.337Z,87.6
2022-10-11T06:03:17.531Z,88
2022-10-11T06:04:20.977Z,87.8
2022-10-11T06:05:24.144Z,88.2
2022-10-11T06:06:27.307Z,88.5
2022-10-11T06:07:30.375Z,88.1
2022-10-11T06:08:33.192Z,88.2
2022-10-11T06:09:36.695Z,88
2022-10-11T06:10:40.208Z,87.9
2022-10-11T06:11:43.588Z,87.9
2022-10-11T06:12:47.351Z,87.6
2022-10-11T06:13:50.518Z,87.3
2022-10-11T06:14:53.931Z,87.5
2022-10-11T06:15:57.058Z,87.8
2022-10-11T06:17:00.210Z,88
2022-10-11T06:18:03.456Z,88.1
2022-10-11T06:19:05.783Z,88.4
2022-10-11T06:20:08.951Z,88.1
2022-10-11T06:21:12.651Z,88.4
2022-10-11T06:22:16.176Z,88.4
2022-10-11T06:23:19.868Z,88.5
2022-10-11T06:24:23.892Z,88.4
2022-10-11T06:25:27.374Z,88.6
2022-10-11T06:26:30.440Z,88.1
2022-10-11T06:27:32.680Z,88.1
2022-10-11T06:28:36.528Z,87.9
2022-10-11T06:29:39.930Z,87.9
2022-10-11T06:30:42.802Z,87.6
2022-10-11T06:31:45.922Z,87.5
2022-10-11T06:32:49.336Z,87.2
2022-10-11T06:33:52.800Z,87.4
2022-10-11T06:34:55.960Z,87.7
2022-10-11T06:35:58.947Z,88
2022-10-11T06:37:02.849Z,88.2
2022-10-11T06:38:05.997Z,88.5
2022-10-11T06:39:09.333Z,88.3
2022-10-11T06:40:11.935Z,88.1
2022-10-11T06:41:15.091Z,88.2
2022-10-11T06:42:19.090Z,88.3
2022-10-11T06:43:22.155Z,88.2
2022-10-11T06:44:25.572Z,88.4
2022-10-11T06:45:27.893Z,88.5
2022-10-11T06:46:30.772Z,88.5
2022-10-11T06:47:33.867Z,87.9
2022-10-11T06:48:36.658Z,87.6
2022-10-11T06:49:40.039Z,87.3
2022-10-11T06:51:01.884Z,87.4
2022-10-11T06:52:04.334Z,87.8
2022-10-11T06:53:07.887Z,88.3
2022-10-11T06:54:10.709Z,88.4
2022-10-11T06:55:13.263Z,88.1
2022-10-11T06:56:16.672Z,88.2
2022-10-11T06:57:19.864Z,87.6
2022-10-11T06:58:22.687Z,87.5
2022-10-11T06:59:25.845Z,87.5
2022-10-11T07:00:29.677Z,87.6
2022-10-11T07:01:32.684Z,87.8
2022-10-11T07:02:35.624Z,87.9
2022-10-11T07:03:38.500Z,87.8
2022-10-11T07:04:41.299Z,87.8
2022-10-11T07:05:43.613Z,87.8
2022-10-11T07:06:46.681Z,88
2022-10-11T07:07:49.780Z,87.7
2022-10-11T07:08:52.942Z,87.8
2022-10-11T07:09:55.554Z,87.8
2022-10-11T07:10:58.894Z,87.6
2022-10-11T07:12:01.611Z,87.7
2022-10-11T07:13:04.758Z,88
2022-10-11T07:14:08.840Z,87.8
2022-10-11T07:15:12.304Z,87.8
2022-10-11T07:16:16.157Z,87.3
2022-10-11T07:17:18.587Z,87.4
2022-10-11T07:18:22.752Z,87.5
2022-10-11T07:19:25.684Z,87.7
2022-10-11T07:20:28.737Z,88
2022-10-11T07:21:31.916Z,87.8
2022-10-11T07:22:34.165Z,87.3
2022-10-11T07:23:36.631Z,87.3
2022-10-11T07:24:40.438Z,86.8
2022-10-11T07:25:43.288Z,87
2022-10-11T07:26:46.093Z,86.9
2022-10-11T07:27:49.455Z,86.6
2022-10-11T07:28:53.034Z,86.4
2022-10-11T07:29:56.294Z,86.2
2022-10-11T07:30:59.828Z,86.3
2022-10-11T07:32:03.242Z,86.2
2022-10-11T07:33:06.685Z,86.4
2022-10-11T07:34:09.854Z,86.4
2022-10-11T07:35:12.579Z,86.2
2022-10-11T07:36:15.928Z,86.2
2022-10-11T07:37:18.453Z,85.7
2022-10-11T07:38:20.785Z,85.3
2022-10-11T07:39:23.289Z,85.7
2022-10-11T07:40:27.027Z,85.6
2022-10-11T07:41:30.132Z,85.1
2022-10-11T07:42:32.921Z,85.4
2022-10-11T07:43:36.731Z,85.6
2022-10-11T07:44:40.455Z,84.7
2022-10-11T07:45:43.800Z,84.5
2022-10-11T07:46:46.864Z,84.5
2022-10-11T07:47:50.660Z,84.2
2022-10-11T07:48:53.249Z,84.1
2022-10-11T07:49:56.051Z,84.3
2022-10-11T07:50:59.197Z,83.9
2022-10-11T07:52:02.277Z,84.4
2022-10-11T07:53:05.499Z,84.1
2022-10-11T07:54:08.893Z,83.6
2022-10-11T07:55:11.220Z,83.3
2022-10-11T07:56:14.099Z,83.5
2022-10-11T07:57:17.242Z,83.2
2022-10-11T07:58:20.394Z,83.3
2022-10-11T07:59:23.111Z,83.2
2022-10-11T08:00:26.926Z,82.8
2022-10-11T08:01:30.924Z,82.6
2022-10-11T08:02:34.476Z,82.8
2022-10-11T08:03:38.238Z,82.2
2022-10-11T08:04:41.242Z,82
2022-10-11T08:05:44.037Z,81.9
2022-10-11T08:06:54.493Z,81.8
2022-10-11T08:07:58.120Z,81.9
2022-10-11T08:09:00.925Z,82
2022-10-11T08:10:04.073Z,81.2
2022-10-11T08:11:07.167Z,81.4
2022-10-11T08:12:10.479Z,80.7
2022-10-11T08:13:14.278Z,80.3
2022-10-11T08:14:17.722Z,80.1
2022-10-11T08:15:20.995Z,80.2
2022-10-11T08:16:24.137Z,79.8
2022-10-11T08:17:27.367Z,79.9
2022-10-11T08:18:30.186Z,79.3
2022-10-11T08:19:33.865Z,78.9
2022-10-11T08:20:36.683Z,79.5
2022-10-11T08:21:39.775Z,79.2
2022-10-11T08:22:42.594Z,78.4
2022-10-11T08:23:45.085Z,78.4
2022-10-11T08:24:48.795Z,78.5
2022-10-11T08:25:51.779Z,78.3
2022-10-11T08:26:55.645Z,77.8
2022-10-11T08:27:58.597Z,77.8
2022-10-11T08:29:02.373Z,77.4
2022-10-11T08:30:05.535Z,76.8
2022-10-11T08:31:08.319Z,76.7
2022-10-11T08:32:11.780Z,76.5
2022-10-11T08:33:15.275Z,76.5
2022-10-11T08:34:18.448Z,76.4
2022-10-11T08:35:22.686Z,75.9
2022-10-11T08:36:26.555Z,75.6
2022-10-11T08:37:29.151Z,75.9
2022-10-11T08:38:31.713Z,75
2022-10-11T08:39:35.353Z,74.4
2022-10-11T08:40:39.221Z,75
2022-10-11T08:41:42.414Z,74.2
2022-10-11T08:42:45.271Z,74.8
2022-10-11T08:43:48.711Z,74
2022-10-11T08:45:13.157Z,73.7
2022-10-11T08:46:16.322Z,73.2
2022-10-11T08:47:19.470Z,73.5
2022-10-11T08:48:22.883Z,72.7
2022-10-11T08:49:25.607Z,72.3
2022-10-11T08:50:29.727Z,72.5
2022-10-11T08:51:32.638Z,72
2022-10-11T08:52:35.742Z,71.8
2022-10-11T08:53:39.493Z,70.7
2022-10-11T08:54:43.588Z,70.5
2022-10-11T08:55:46.391Z,70.5
2022-10-11T08:56:49.517Z,70.9
2022-10-11T08:57:52.857Z,70.5
2022-10-11T08:58:56.338Z,70.1
2022-10-11T08:59:59.804Z,70.1
2022-10-11T09:01:03.508Z,69.8
2022-10-11T09:02:06.655Z,69.9
2022-10-11T09:03:11.232Z,69.9
2022-10-11T09:04:14.439Z,69.6
2022-10-11T09:05:17.326Z,69.5
2022-10-11T09:06:21.127Z,69.3
2022-10-11T09:07:24.074Z,68.3
2022-10-11T09:08:27.524Z,68
2022-10-11T09:09:30.122Z,68.5
2022-10-11T09:10:33.302Z,67.7
2022-10-11T09:11:37.031Z,67.9
2022-10-11T09:12:41.942Z,66.9
2022-10-11T09:13:45.134Z,66
2022-10-11T09:14:48.805Z,65.3
2022-10-11T09:15:52.141Z,65.5
2022-10-11T09:16:55.875Z,65.5
2022-10-11T09:17:58.416Z,66.9
2022-10-11T09:19:01.286Z,66.1
2022-10-11T09:20:04.982Z,66.5
2022-10-11T09:21:08.238Z,65.3
2022-10-11T09:22:11.487Z,65.3
2022-10-11T09:23:14.001Z,64.9
2022-10-11T09:24:16.867Z,64.7
2022-10-11T09:25:19.858Z,64.2
2022-10-11T09:26:22.394Z,63.6
2022-10-11T09:28:04.494Z,63.9
2022-10-11T09:29:08.524Z,63.1
2022-10-11T09:30:11.712Z,62.9
2022-10-11T09:31:14.303Z,63.6
2022-10-11T09:32:16.915Z,63.5
2022-10-11T09:33:20.092Z,63.2
2022-10-11T09:34:24.156Z,63.8
2022-10-11T09:35:27.512Z,63.8
2022-10-11T09:36:30.222Z,62.2
2022-10-11T09:37:33.514Z,61.7
2022-10-11T09:38:35.747Z,59.9
2022-10-11T09:39:39.022Z,60.9
2022-10-11T09:40:40.988Z,60.8
2022-10-11T09:41:43.864Z,59.9
2022-10-11T09:42:47.606Z,60.2
2022-10-11T09:43:51.059Z,59.9
2022-10-11T09:44:53.964Z,60.6
2022-10-11T09:45:57.196Z,59.6
2022-10-11T09:47:00.465Z,59.8
2022-10-11T09:48:03.634Z,60.1
2022-10-11T09:49:06.466Z,59.5
2022-10-11T09:50:09.591Z,58.2
2022-10-11T09:51:13.064Z,59.6
2022-10-11T09:52:16.435Z,59.5
2022-10-11T09:53:20.155Z,59.2
2022-10-11T09:54:23.596Z,57.6
2022-10-11T09:55:26.699Z,58.4
2022-10-11T09:56:29.845Z,57
2022-10-11T09:57:33.011Z,57.2
2022-10-11T09:58:35.899Z,56.7
2022-10-11T09:59:38.965Z,57.5
2022-10-11T10:00:42.121Z,56.7
2022-10-11T10:01:46.188Z,56.8
2022-10-11T10:02:49.468Z,56.5
2022-10-11T10:03:52.340Z,57
2022-10-11T10:04:55.963Z,54.9
2022-10-11T10:05:59.220Z,55.7
2022-10-11T10:07:02.461Z,54.3
2022-10-11T10:08:06.460Z,55.4
2022-10-11T10:09:09.497Z,53.8
2022-10-11T10:10:12.286Z,54.2
2022-10-11T10:11:15.638Z,53.6
2022-10-11T10:12:19.097Z,51.9
2022-10-11T10:13:22.584Z,52.5
2022-10-11T10:14:26.005Z,52.9
2022-10-11T10:15:29.216Z,52.2
2022-10-11T10:16:32.491Z,51.2
2022-10-11T10:17:35.635Z,51.3
2022-10-11T10:18:38.758Z,51.3
2022-10-11T10:19:46.200Z,50.7
2022-10-11T10:20:49.378Z,50.6
2022-10-11T10:21:52.926Z,50.7
2022-10-11T10:22:56.097Z,52.3
2022-10-11T10:23:58.903Z,51
2022-10-11T10:25:02.538Z,52.2
2022-10-11T10:26:07.770Z,49.9
2022-10-11T10:27:11.483Z,50
2022-10-11T10:28:15.350Z,49.2
2022-10-11T10:29:18.573Z,50.2
2022-10-11T10:30:22.021Z,50.1
2022-10-11T10:31:25.092Z,49.6
2022-10-11T10:32:29.589Z,48.9
2022-10-11T10:33:32.996Z,48.8
2022-10-11T10:34:35.439Z,49.1
2022-10-11T10:35:38.242Z,49
2022-10-11T10:36:42.047Z,49.2
2022-10-11T10:37:45.178Z,49.2
2022-10-11T10:38:53.503Z,49.3
2022-10-11T10:39:56.039Z,47.2
2022-10-11T10:40:59.315Z,46
2022-10-11T10:42:01.745Z,45.9
2022-10-11T10:43:04.804Z,46
2022-10-11T10:44:08.793Z,46
2022-10-11T10:45:22.556Z,45.1
2022-10-11T10:46:26.179Z,46.7
2022-10-11T10:47:29.535Z,45
2022-10-11T10:49:55.059Z,45.9
2022-10-11T10:50:58.366Z,47.1
2022-10-11T10:52:01.548Z,47.7
2022-10-11T10:53:05.170Z,46.4
2022-10-11T10:54:08.407Z,45.8
2022-10-11T10:55:11.474Z,46.7
2022-10-11T10:56:15.092Z,47.2
2022-10-11T10:57:17.901Z,47.1
2022-10-11T10:58:20.893Z,45.8
2022-10-11T10:59:23.952Z,45.7
2022-10-11T11:00:27.969Z,45.4
2022-10-11T11:01:31.339Z,48
2022-10-11T11:02:43.078Z,45.6
2022-10-11T11:03:46.854Z,43.7
2022-10-11T11:04:49.324Z,44.7
2022-10-11T11:05:52.328Z,44.6
2022-10-11T11:06:55.110Z,46.3
2022-10-11T11:07:58.378Z,46
2022-10-11T11:09:01.726Z,44.7
2022-10-11T11:10:05.070Z,45
2022-10-11T11:11:08.415Z,46.2
2022-10-11T11:12:12.120Z,46.4
2022-10-11T11:13:14.846Z,46.5
2022-10-11T11:14:17.953Z,46.8
2022-10-11T11:15:38.274Z,45.2
2022-10-11T11:16:41.780Z,45
2022-10-11T11:17:44.853Z,44.3
2022-10-11T11:18:48.022Z,44.7
2022-10-11T11:19:50.815Z,45
2022-10-11T11:20:54.391Z,45.6
2022-10-11T11:21:57.660Z,46.7
2022-10-11T11:23:00.543Z,46.2
2022-10-11T11:24:03.777Z,46.2
2022-10-11T11:25:06.664Z,45.7
2022-10-11T11:26:10.106Z,46
2022-10-11T11:27:12.261Z,46
2022-10-11T11:28:16.157Z,47.7
2022-10-11T11:29:18.835Z,48.2
2022-10-11T11:30:22.284Z,47.2
2022-10-11T11:31:25.155Z,46.5
2022-10-11T11:32:28.025Z,47.2
2022-10-11T11:33:30.741Z,46.3
2022-10-11T11:34:33.327Z,45.6
2022-10-11T11:35:36.688Z,45.3
2022-10-11T11:36:39.934Z,46
2022-10-11T11:37:42.648Z,46.5
2022-10-11T11:38:44.866Z,46
2022-10-11T11:39:47.807Z,47.8
2022-10-11T11:40:51.505Z,47.7
2022-10-11T11:41:54.844Z,47.1
2022-10-11T11:42:57.783Z,48.3
2022-10-11T11:44:01.083Z,47.3
2022-10-11T11:45:03.882Z,45.6
2022-10-11T11:46:07.892Z,46.8
2022-10-11T11:47:10.765Z,45.7
2022-10-11T11:48:13.654Z,46.1
2022-10-11T11:49:16.547Z,45.4
2022-10-11T11:50:19.259Z,44.6
2022-10-11T11:51:22.005Z,44.1
2022-10-11T11:52:25.551Z,44
2022-10-11T11:53:28.433Z,45.3
2022-10-11T11:54:31.804Z,44
2022-10-11T11:55:35.007Z,47.3
2022-10-11T11:56:38.018Z,44.6
2022-10-11T11:57:40.920Z,45
2022-10-11T11:58:43.579Z,45.1
2022-10-11T11:59:47.645Z,44.8
2022-10-11T12:00:50.831Z,44.1
2022-10-11T12:01:54.748Z,44.3
2022-10-11T12:02:57.712Z,45.7
2022-10-11T12:04:00.849Z,46.8
2022-10-11T12:05:03.978Z,45.2
2022-10-11T12:06:06.752Z,46.3
2022-10-11T12:07:18.810Z,44.9
2022-10-11T12:08:22.164Z,43.9
2022-10-11T12:09:25.231Z,43.8
2022-10-11T12:10:28.550Z,44.7
2022-10-11T12:11:36.789Z,45.4
2022-10-11T12:12:40.260Z,44.8
2022-10-11T12:13:43.350Z,45.3
2022-10-11T12:14:46.699Z,46.2
2022-10-11T12:15:50.480Z,43.3
2022-10-11T12:16:53.304Z,43.5
2022-10-11T12:17:56.455Z,43.5
2022-10-11T12:18:59.556Z,44
2022-10-11T12:20:02.573Z,43.8
2022-10-11T12:21:06.596Z,43.7
2022-10-11T12:22:10.887Z,44.1
2022-10-11T12:23:21.101Z,45.2
2022-10-11T12:24:24.250Z,44.1
2022-10-11T12:25:26.775Z,44.9
2022-10-11T12:26:30.484Z,45.9
2022-10-11T12:27:33.682Z,46.4
2022-10-11T12:28:37.539Z,46.2
2022-10-11T12:29:41.653Z,46.2
2022-10-11T12:30:44.375Z,47.4
2022-10-11T12:31:47.961Z,47.6
2022-10-11T12:32:51.080Z,49.8
2022-10-11T12:33:54.237Z,49.8
2022-10-11T12:34:57.724Z,50
2022-10-11T12:36:09.396Z,49.8
2022-10-11T12:37:14.424Z,50.9
2022-10-11T12:38:17.881Z,50.5
2022-10-11T12:39:20.684Z,51.5
2022-10-11T12:40:23.867Z,53
2022-10-11T12:41:26.747Z,52
2022-10-11T12:42:30.384Z,51.9
2022-10-11T12:43:33.853Z,52.5
2022-10-11T12:44:37.255Z,52.7
2022-10-11T12:45:41.090Z,51.2
2022-10-11T12:46:44.158Z,51.6
2022-10-11T12:47:48.069Z,51.3
2022-10-11T12:48:51.525Z,52.4
2022-10-11T12:49:54.590Z,51.3
2022-10-11T12:51:04.294Z,51.4
2022-10-11T12:52:08.021Z,51.7
2022-10-11T12:53:10.657Z,50.3
2022-10-11T12:54:37.584Z,51.2
2022-10-11T12:55:41.452Z,49.9
2022-10-11T12:56:44.626Z,49.8
2022-10-11T12:57:48.124Z,49.8
2022-10-11T12:58:51.339Z,50
2022-10-11T12:59:55.205Z,51.2
2022-10-11T13:00:58.660Z,52.2
2022-10-11T13:02:01.827Z,51.2
2022-10-11T13:03:05.331Z,52.7
2022-10-11T13:04:07.737Z,53.7
2022-10-11T13:05:10.908Z,52.8
2022-10-11T13:06:14.437Z,52.6
2022-10-11T13:07:17.622Z,52.5
2022-10-11T13:08:20.331Z,54
2022-10-11T13:09:23.230Z,52.7
2022-10-11T13:10:26.022Z,53.7
2022-10-11T13:11:28.809Z,54.1
2022-10-11T13:12:32.161Z,54.7
2022-10-11T13:13:34.330Z,54.8
2022-10-11T13:14:37.917Z,54.9
2022-10-11T13:15:40.846Z,54.5
2022-10-11T13:16:44.316Z,55.2
2022-10-11T13:17:47.325Z,55.4
2022-10-11T13:18:50.956Z,53.9
2022-10-11T13:19:53.510Z,54
2022-10-11T13:20:56.225Z,53.9
2022-10-11T13:21:59.964Z,55.2
2022-10-11T13:23:02.481Z,55.5
2022-10-11T13:24:05.394Z,56.4
2022-10-11T13:25:08.743Z,54.9
2022-10-11T13:26:12.010Z,53.9
2022-10-11T13:27:14.876Z,54.1
2022-10-11T13:28:17.977Z,55.1
2022-10-11T13:29:21.807Z,54
2022-10-11T13:30:24.930Z,53.5
2022-10-11T13:31:28.422Z,53.1
2022-10-11T13:32:32.139Z,55.8
2022-10-11T13:33:36.144Z,53
2022-10-11T13:34:39.728Z,55.2
2022-10-11T13:35:42.528Z,54.2
2022-10-11T13:36:45.993Z,53.8
2022-10-11T13:37:49.734Z,53.4
2022-10-11T13:38:52.917Z,54.1
2022-10-11T13:39:55.795Z,52.7
2022-10-11T13:40:59.216Z,51.8
2022-10-11T13:42:02.012Z,51.1
2022-10-11T13:43:05.026Z,52.1
2022-10-11T13:44:08.462Z,53.4
2022-10-11T13:45:11.712Z,54.1
2022-10-11T13:46:14.563Z,55.6
2022-10-11T13:47:18.020Z,52.6
2022-10-11T13:48:21.482Z,52.5
2022-10-11T13:49:24.845Z,53.7
2022-10-11T13:50:28.986Z,52.8
2022-10-11T13:51:31.983Z,53.8
2022-10-11T13:52:35.436Z,56.2
2022-10-11T13:53:38.243Z,51.9
2022-10-11T13:54:41.709Z,53.1
2022-10-11T13:55:44.946Z,53.6
2022-10-11T13:56:48.300Z,54
2022-10-11T13:57:51.422Z,54.9
2022-10-11T13:58:55.169Z,54.7
2022-10-11T13:59:58.512Z,55.8
2022-10-11T14:01:01.862Z,56
2022-10-11T14:02:04.826Z,55.7
2022-10-11T14:03:08.117Z,54.1
2022-10-11T14:04:11.705Z,53.6
2022-10-11T14:05:15.085Z,55.8
2022-10-11T14:06:18.942Z,55.2
2022-10-11T14:07:21.732Z,55.6
2022-10-11T14:08:24.825Z,55.6
2022-10-11T14:09:28.272Z,56.2
2022-10-11T14:10:32.001Z,57
2022-10-11T14:11:35.430Z,55.1
2022-10-11T14:12:38.822Z,55.7
2022-10-11T14:13:42.267Z,55.3